Dubois, Wyoming
Current Conditions -  °F | °C
As of 9:55 AM on Thursday 23 Oct 2014 (Local Time) from KDUB Reporting Station
Clear Clear  
Wind Chill: 50°   Ceiling: Unl
Heat Index: 50°   Visibility: 7mi
Dew Point: 21°   Wind: 14mph
Humidity: 32%   Direction: 300°WNW
Pressure: 30.12"   Gusts: 30mph
Location:  43.53°N, 109.63°W
Report Text: KDUB 231555Z AUTO 30012G26KT 7SM CLR 10/M06 A3012 RMK AO2
Loading
Personal Weather Stations






























Interactive Weather Map
Tropical Storm Tracking
New forecast layout! Learn more

10-Day Weather Forecast

Advertisements
Track Severe Weather on mobile